Архив погоды в Колпашево

Метеограмма Колпашево
Вторник, 25 Июня
Время местн. Темп Ветер Видим Явления Облачность нижн/средн/верх Атм. давл. Влжн Точка росы ВНГО R Сост. почвы Tg s
Напр Скр Прв ур.ст ур.м изм
09:00 +16.7° Ю 1 - 20 км - переменная облачность 752 759 +0.2 76% +12.4° - - - - -
06:00 +14.4° Ю 2 - 20 км небо без изменений {ливневые осадки} облачно 752 759 +0.4 82% +11.4° 1.5 км 0 Влажная (без луж) - -
03:00 +13.4° Ю 1 - 20 км небо без изменений {ливневые осадки} преимущественно облачно 751 758 -0.4 88% +11.4° 600 м - - - -
00:00 +14.5° Ю 1 - 20 км - преимущественно облачно 752 759 +0.2 86% +12.2° 600 м - - - -
Понедельник, 24 Июня
Время местн. Темп Ветер Видим Явления Облачность нижн/средн/верх Атм. давл. Влжн Точка росы ВНГО R Сост. почвы Tg s
Напр Скр Прв ур.ст ур.м изм
21:00 +15.4° Ю 1 - 20 км - облачно 752 758 +0.1 83% +12.5° 600 м - - - -
18:00 +16.8° З,Ю-З 1 - 20 км дождь облачно 752 758 +0.1 73% +12° 1 км 0 - - -
15:00 +16.3° З 2 - 20 км - облачно 751 758 +0.2 75% +11.9° 600 м - - - -
12:00 +15.3° З 2 - 20 км - облачно 751 758 +0.2 79% +11.7° 600 м - - - -
09:00 +14.2° З,С-З 2 - 20 км - облачно 751 758 +0.3 84% +11.5° 200 м - - - -
06:00 +13° З,С-З 2 - 20 км - облачно 751 758 +0.3 89% +11.2° 600 м 0 Влажная (без луж) - -
03:00 +12.6° З,С-З 1 - 20 км - облачно 750 757 -0.5 90% +11° 300 м - - - -
00:00 +12.9° З 1 - 20 км - облачно 751 758 +0.2 89% +11.1° 300 м - - - -
Воскресенье, 23 Июня
Время местн. Темп Ветер Видим Явления Облачность нижн/средн/верх Атм. давл. Влжн Точка росы ВНГО R Сост. почвы Tg s
Напр Скр Прв ур.ст ур.м изм
21:00 +14.1° З,С-З 2 - 20 км - облачно с прояснениями 751 758 +0.2 84% +11.4° 1 км - - - -
18:00 +15.6° З,С-З 2 - 20 км - облачно 751 757 +0.2 74% +10.9° 600 м 0 - - -
15:00 +16.4° З 3 - 20 км - преимущественно облачно 750 757 +0.5 70% +10.9° 600 м - - - -
12:00 +15.6° З 2 - 20 км - облачно 750 757 +0.7 77% +11.6° 600 м - - - -
09:00 +15.2° З 1 - 20 км - преимущественно облачно 749 756 +0.7 83% +12.3° 600 м - - - -
06:00 +13.3° З 2 - 4 км дымка {ливневые осадки} преимущественно облачно 749 755 +0.2 96% +12.6° 600 м 0 Влажная (без луж) - -
03:00 +13.3° З 2 - 4 км дымка {ливневые осадки} облачно 748 755 -0.2 95% +12.5° 600 м - - - -
00:00 +13.6° штиль 0 - 10 км слабый ливневый дождь облачно 748 755 +0.2 95% +12.8° 600 м - - - -
Суббота, 22 Июня
Время местн. Темп Ветер Видим Явления Облачность нижн/средн/верх Атм. давл. Влжн Точка росы ВНГО R Сост. почвы Tg s
Напр Скр Прв ур.ст ур.м изм
21:00 +15° штиль 0 - 4 км дымка облачно 748 755 -0.2 93% +13.9° - - - - -
18:00 +15.8° штиль 0 - 20 км гроза без осадков {ливневые осадки} облачно 748 755 +1.5 91% +14.4° 600 м 9 - - -
15:00 +23.8° В,Ю-В 4 - 20 км - облачно 747 753 -1.3 42% +10° 1 км - - - -
12:00 +24.1° Ю-В 2 - 20 км - облачно 748 755 -1.2 50% +13° 600 м - - - -
09:00 +20.1° В 2 - 20 км - преимущественно облачно 749 756 -0.3 62% +12.5° - - - - -
06:00 +15.6° Ю-В 1 - 20 км - облачно с прояснениями 750 756 0 76% +11.3° 1 км 0 Влажная (без луж) - -